Huron, SD (57350)

4:31 AM CST on February 23, 2017 (GMT -0600)
Huron Regional | | Change Station
Active Advisory: Winter Weather Advisory

Elev 1286 ft 44.38 °N, 98.23 °W | Updated 36 minutes ago

Mostly Cloudy
Mostly Cloudy
29 °F
Feels Like 19 °F
N
12
Wind Variable Wind from North

Today
High -- | Low -- °F
--% Chance of Precip.
Yesterday
High -- | Low -- °F
Precip. -- in
Pressure 29.97 in
Visibility 10.0 miles
Clouds Clear
Windchill 19 °F
Dew Point 26 °F
Humidity 89%
Rainfall 0.00 in
Snow Depth Not available.
7:19 AM 6:13 PM
Waning Crescent, 11% visible
METAR KHON 230955Z AUTO 01010KT 10SM CLR M02/M03 A2994 RMK AO2 SLP149 T10171033
Pressure 29.97 in
Visibility 10.0 miles
Clouds Clear
Windchill 19 °F
Dew Point 26 °F
Humidity 89%
Rainfall 0.00 in
Snow Depth Not available.
7:19 AM 6:13 PM
Waning Crescent, 11% visible
METAR KHON 230955Z AUTO 01010KT 10SM CLR M02/M03 A2994 RMK AO2 SLP149 T10171033

Get Your Daily Forecast Email!

Thanks for signing up!

Be on the lookout for a verification email in your inbox.

You'll start receiving the daily forecast at 8 AM.

×

10-Day Weather Forecast

Almanac

Astronomy

Feb. 23, 2017 Rise Set
Actual Time
Civil Twilight
Nautical Twilight
Astronomical Twilight
Moon
Length of Visible Light
Length of Day
Tomorrow will be .
, % of the Moon is Illuminated

Today's Extremes

State Highs State Lows

Community

WunderPhotos

Upload Photos

1,962,540 photos uploaded!

WunderBlog® & News

Nearby

Air Quality

  Air Quality AQ Index Pollutant
Not available.

Snow Depth

Station Depth Elevation

Earthquake Activity

City Distance Mag. Time & Date
Minimum magnitude displayed is 2.5.

Coastal Water Temperatures

Place Temperature

Stations

Nearby Weather Stations

Station Location Temp. Windchill Dew Point Humidity Wind Precip. Elev Updated Type
                   

Watches & Warnings

Winter Weather Advisory
Issued: 4:14 AM CST Feb. 23, 2017 – National Weather Service

... Winter Weather Advisory in effect from 3 PM this afternoon to
noon CST Friday...

The National Weather Service in Sioux Falls has issued a Winter
Weather Advisory for snow and blowing snow, which is in effect
from 3 PM this afternoon to noon CST Friday. The Winter Storm
Watch is no longer in effect.

* Timing... snow will spread into the area early to mid afternoon,
then continue through tonight. Snow should diminish through
Friday morning.

* Accumulations... storm total snow accumulations averaging 2 to 5
inches are expected.

* Wind and visibility... winds will increase from the north around
25 to 30 mph tonight and Friday, with gusts to near 35 mph at
times. Visibility will be reduced to a half mile or less at
times, especially while snow is falling.

Precautionary/preparedness actions...

A Winter Weather Advisory for snow and blowing snow means that
visibilities will be limited due to a combination of falling and
blowing snow. Use caution when traveling... especially in open
areas.